Time;durP1;ratioP1;P1;durP2;ratioP2;P2;SDS_P1;SDS_P2;PMS_P1;PMS_P2;Temp;Humidity;BMP_temperature;BMP_pressure;BME280_temperature;BME280_humidity;BME280_pressure;Samples;Min_cycle;Max_cycle;Signal;HPM_P1;HPM_P2
2022/01/06 00:00:28;;;;;;;6.47;2.80;;;;;;;;;;5139396;27;20215;-68
2022/01/06 00:02:54;;;;;;;10.52;3.03;;;;;;;;;;5139768;27;20269;-69
2022/01/06 00:05:20;;;;;;;6.32;2.60;;;;;;;;;;5144702;27;20391;-69
2022/01/06 00:07:47;;;;;;;6.80;2.78;;;;;;;;;;5145300;27;20194;-69
2022/01/06 00:10:15;;;;;;;8.88;3.35;;;;;;;;;;5145874;27;20201;-68
2022/01/06 00:12:47;;;;;;;5.00;2.85;;;;;;;;;;5145417;27;20265;-68
2022/01/06 00:15:28;;;;;;;6.22;2.60;;;;;;;;;;5144199;27;20370;-68
2022/01/06 00:23:34;;;;;;;6.15;2.40;;;;;;;;;;5164504;27;20223;-68
2022/01/06 00:26:01;;;;;;;11.35;2.90;;;;;;;;;;5161661;27;20524;-68
2022/01/06 00:28:28;;;;;;;6.65;2.28;;;;;;;;;;5161559;27;20201;-68
2022/01/06 00:30:55;;;;;;;5.65;2.55;;;;;;;;;;5161441;27;20292;-68
2022/01/06 00:33:21;;;;;;;5.68;2.50;;;;;;;;;;5161616;27;20201;-66
2022/01/06 00:35:49;;;;;;;6.75;2.83;;;;;;;;;;5160990;27;20501;-66
2022/01/06 00:38:16;;;;;;;9.93;3.45;;;;;;;;;;5160878;27;20193;-66
2022/01/06 00:40:42;;;;;;;5.05;3.22;;;;;;;;;;5160962;27;20217;-66
2022/01/06 00:43:09;;;;;;;6.55;2.50;;;;;;;;;;5161277;27;20520;-66
2022/01/06 00:45:36;;;;;;;7.03;2.90;;;;;;;;;;5160790;27;20218;-67
2022/01/06 00:48:03;;;;;;;4.50;2.40;;;;;;;;;;5160927;27;20200;-67
2022/01/06 00:50:29;;;;;;;8.57;2.80;;;;;;;;;;5161026;27;20197;-67
2022/01/06 00:52:57;;;;;;;6.60;2.50;;;;;;;;;;5161094;27;20217;-66
2022/01/06 00:55:23;;;;;;;11.52;3.38;;;;;;;;;;5160787;27;20529;-66
2022/01/06 00:57:50;;;;;;;8.38;2.80;;;;;;;;;;5160545;27;20194;-66
2022/01/06 01:00:17;;;;;;;8.27;2.72;;;;;;;;;;5160692;27;20220;-66
2022/01/06 01:02:43;;;;;;;5.88;2.42;;;;;;;;;;5160536;27;20201;-66
2022/01/06 01:05:09;;;;;;;7.40;2.72;;;;;;;;;;5160317;27;20202;-67
2022/01/06 01:07:36;;;;;;;9.13;3.80;;;;;;;;;;5160724;27;20218;-67
2022/01/06 01:10:04;;;;;;;7.18;2.90;;;;;;;;;;5160494;27;20197;-66
2022/01/06 01:12:30;;;;;;;7.03;2.85;;;;;;;;;;5160501;27;20201;-65
2022/01/06 01:14:59;;;;;;;11.48;2.67;;;;;;;;;;5159437;27;20201;-66
2022/01/06 01:17:27;;;;;;;5.05;2.53;;;;;;;;;;5160937;27;20197;-67
2022/01/06 01:19:54;;;;;;;7.75;3.28;;;;;;;;;;5160132;27;20413;-66
2022/01/06 01:22:20;;;;;;;7.30;2.90;;;;;;;;;;5160108;27;20194;-66
2022/01/06 01:24:46;;;;;;;6.60;2.58;;;;;;;;;;5160069;27;20404;-65
2022/01/06 01:27:15;;;;;;;9.00;2.60;;;;;;;;;;5160323;27;20194;-67
2022/01/06 01:29:56;;;;;;;3.50;2.60;;;;;;;;;;5160235;27;20189;-67
2022/01/06 01:32:28;;;;;;;9.50;3.92;;;;;;;;;;5144907;27;20205;-66
2022/01/06 01:34:59;;;;;;;6.03;2.35;;;;;;;;;;5146280;27;20522;-66
2022/01/06 01:37:26;;;;;;;5.18;2.55;;;;;;;;;;5146074;27;20204;-66
2022/01/06 01:39:52;;;;;;;7.90;2.53;;;;;;;;;;5146044;27;20223;-66
2022/01/06 01:42:20;;;;;;;12.77;3.30;;;;;;;;;;5146219;27;20361;-65
2022/01/06 01:44:48;;;;;;;7.65;2.47;;;;;;;;;;5145486;27;20214;-65
2022/01/06 01:47:16;;;;;;;7.57;3.25;;;;;;;;;;5145876;27;20221;-65
2022/01/06 01:49:49;;;;;;;10.57;2.92;;;;;;;;;;5145904;27;20226;-65
2022/01/06 01:52:15;;;;;;;10.25;2.97;;;;;;;;;;5145997;27;20194;-66
2022/01/06 01:54:42;;;;;;;7.25;2.53;;;;;;;;;;5145721;27;20190;-66
2022/01/06 01:57:08;;;;;;;8.02;2.83;;;;;;;;;;5145679;27;20202;-65
2022/01/06 01:59:36;;;;;;;10.63;3.35;;;;;;;;;;5145796;27;20217;-65
2022/01/06 02:02:03;;;;;;;7.75;2.60;;;;;;;;;;5145806;27;20507;-66
2022/01/06 02:04:29;;;;;;;4.72;2.60;;;;;;;;;;5145455;27;20201;-66
2022/01/06 02:06:56;;;;;;;8.23;2.80;;;;;;;;;;5145595;27;20187;-66
2022/01/06 02:09:22;;;;;;;5.85;2.47;;;;;;;;;;5145733;27;20190;-67
2022/01/06 02:11:48;;;;;;;6.72;2.90;;;;;;;;;;5145445;27;20386;-65
2022/01/06 02:14:15;;;;;;;5.68;2.17;;;;;;;;;;5145665;27;20201;-65
2022/01/06 02:16:43;;;;;;;4.68;2.65;;;;;;;;;;5145113;27;20390;-65
2022/01/06 02:19:09;;;;;;;5.70;2.55;;;;;;;;;;5145304;27;20506;-65
2022/01/06 02:21:40;;;;;;;8.68;2.45;;;;;;;;;;5145231;27;20195;-65
2022/01/06 02:24:07;;;;;;;8.13;2.47;;;;;;;;;;5144602;27;20202;-65
2022/01/06 02:26:33;;;;;;;4.10;2.88;;;;;;;;;;5145099;27;20194;-65
2022/01/06 02:29:00;;;;;;;7.38;2.65;;;;;;;;;;5145182;27;20194;-67
2022/01/06 02:31:27;;;;;;;4.22;2.30;;;;;;;;;;5144599;27;20330;-65
2022/01/06 02:33:54;;;;;;;6.55;2.78;;;;;;;;;;5145292;27;20201;-66
2022/01/06 02:36:20;;;;;;;5.55;2.08;;;;;;;;;;5145072;27;20202;-66
2022/01/06 02:38:48;;;;;;;7.43;2.90;;;;;;;;;;5145073;27;20205;-66
2022/01/06 02:41:15;;;;;;;6.50;2.22;;;;;;;;;;5144953;27;20214;-65
2022/01/06 02:43:41;;;;;;;4.65;2.47;;;;;;;;;;5143511;27;20266;-67
2022/01/06 02:46:09;;;;;;;7.47;2.53;;;;;;;;;;5144519;27;20214;-66
2022/01/06 02:48:36;;;;;;;6.25;2.03;;;;;;;;;;5143581;27;20233;-66
2022/01/06 02:51:02;;;;;;;8.77;2.75;;;;;;;;;;5144679;27;20190;-66
2022/01/06 02:53:28;;;;;;;4.50;2.20;;;;;;;;;;5144288;27;20201;-65
2022/01/06 02:55:56;;;;;;;6.25;2.28;;;;;;;;;;5144555;27;20194;-65
2022/01/06 02:58:22;;;;;;;4.38;2.30;;;;;;;;;;5144674;27;20502;-65
2022/01/06 03:00:49;;;;;;;3.83;2.28;;;;;;;;;;5144518;27;20218;-66
2022/01/06 03:03:16;;;;;;;5.15;2.13;;;;;;;;;;5144258;27;20498;-65
2022/01/06 03:05:42;;;;;;;7.30;2.80;;;;;;;;;;5144476;27;20507;-65
2022/01/06 03:08:08;;;;;;;7.75;2.80;;;;;;;;;;5143523;27;20466;-65
2022/01/06 03:10:38;;;;;;;5.85;2.20;;;;;;;;;;5144078;27;20198;-65
2022/01/06 03:13:05;;;;;;;3.75;2.05;;;;;;;;;;5144311;27;20198;-65
2022/01/06 03:15:32;;;;;;;11.70;3.00;;;;;;;;;;5143915;27;20194;-66
2022/01/06 03:17:58;;;;;;;3.83;1.83;;;;;;;;;;5144197;27;20202;-65
2022/01/06 03:20:26;;;;;;;3.70;2.22;;;;;;;;;;5143869;27;20556;-65
2022/01/06 03:22:53;;;;;;;4.90;2.10;;;;;;;;;;5143633;27;20194;-65
2022/01/06 03:25:20;;;;;;;4.05;1.90;;;;;;;;;;5144037;27;20202;-65
2022/01/06 03:27:47;;;;;;;7.97;2.08;;;;;;;;;;5144208;27;20194;-65
2022/01/06 03:30:15;;;;;;;4.93;2.17;;;;;;;;;;5143880;27;20494;-65
2022/01/06 03:32:42;;;;;;;4.47;1.75;;;;;;;;;;5143418;27;20503;-66
2022/01/06 03:35:09;;;;;;;3.45;2.00;;;;;;;;;;5143646;27;20195;-66
2022/01/06 03:37:36;;;;;;;3.42;2.13;;;;;;;;;;5144005;27;20198;-66
2022/01/06 03:40:04;;;;;;;8.05;2.75;;;;;;;;;;5144072;27;20502;-66
2022/01/06 03:42:31;;;;;;;3.30;2.22;;;;;;;;;;5143592;27;20201;-66
2022/01/06 03:44:57;;;;;;;5.55;2.40;;;;;;;;;;5143284;27;20221;-66
2022/01/06 03:47:25;;;;;;;5.80;2.40;;;;;;;;;;5143891;27;20201;-66
2022/01/06 03:49:52;;;;;;;3.50;2.08;;;;;;;;;;5143156;27;20194;-66
2022/01/06 03:52:18;;;;;;;5.78;2.08;;;;;;;;;;5142826;27;20202;-66
2022/01/06 03:54:44;;;;;;;2.45;1.90;;;;;;;;;;5143091;27;20194;-66
2022/01/06 03:57:11;;;;;;;6.35;2.08;;;;;;;;;;5143547;27;20194;-66
2022/01/06 03:59:37;;;;;;;6.85;2.00;;;;;;;;;;5143392;27;20202;-66
2022/01/06 04:02:04;;;;;;;4.68;2.17;;;;;;;;;;5143318;27;20218;-66
2022/01/06 04:04:32;;;;;;;4.47;2.08;;;;;;;;;;5143389;27;20194;-66
2022/01/06 04:06:59;;;;;;;4.43;2.60;;;;;;;;;;5143443;27;20193;-66
2022/01/06 04:09:25;;;;;;;3.53;2.05;;;;;;;;;;5143763;27;20202;-66
2022/01/06 04:11:51;;;;;;;7.22;2.22;;;;;;;;;;5143490;27;20191;-66
2022/01/06 04:14:18;;;;;;;4.15;1.95;;;;;;;;;;5143272;27;20195;-66
2022/01/06 04:16:44;;;;;;;2.67;1.90;;;;;;;;;;5143651;27;20202;-66
2022/01/06 04:19:11;;;;;;;4.55;2.38;;;;;;;;;;5143270;28;20533;-66
2022/01/06 04:21:38;;;;;;;6.18;2.25;;;;;;;;;;5143130;28;20230;-66
2022/01/06 04:24:05;;;;;;;3.95;2.05;;;;;;;;;;5141970;28;20393;-66
2022/01/06 04:26:32;;;;;;;2.72;1.88;;;;;;;;;;5143179;28;20202;-66
2022/01/06 04:28:58;;;;;;;5.88;2.20;;;;;;;;;;5143076;28;20210;-66
2022/01/06 04:31:25;;;;;;;6.63;2.35;;;;;;;;;;5142780;28;20380;-66
2022/01/06 04:33:51;;;;;;;3.85;2.25;;;;;;;;;;5143405;28;20194;-66
2022/01/06 04:36:18;;;;;;;7.18;2.25;;;;;;;;;;5143102;28;20486;-66
2022/01/06 04:38:46;;;;;;;5.50;2.38;;;;;;;;;;5143101;28;20198;-66
2022/01/06 04:41:12;;;;;;;7.35;2.05;;;;;;;;;;5143163;28;20237;-66
2022/01/06 04:43:38;;;;;;;3.10;2.28;;;;;;;;;;5142521;28;20202;-66
2022/01/06 04:46:05;;;;;;;4.97;2.67;;;;;;;;;;5143252;28;20222;-66
2022/01/06 04:48:32;;;;;;;4.57;2.38;;;;;;;;;;5143286;28;20194;-66
2022/01/06 04:50:59;;;;;;;6.47;2.28;;;;;;;;;;5142938;27;20197;-66
2022/01/06 04:53:25;;;;;;;3.65;2.35;;;;;;;;;;5142869;28;20194;-66
2022/01/06 04:55:54;;;;;;;5.63;2.40;;;;;;;;;;5142722;28;20201;-66
2022/01/06 04:58:20;;;;;;;4.30;1.92;;;;;;;;;;5142310;27;20195;-66
2022/01/06 05:00:47;;;;;;;3.70;2.08;;;;;;;;;;5142955;28;20409;-66
2022/01/06 05:03:13;;;;;;;3.30;1.63;;;;;;;;;;5142832;28;20194;-66
2022/01/06 05:05:39;;;;;;;3.35;2.30;;;;;;;;;;5143446;27;20202;-66
2022/01/06 05:08:06;;;;;;;4.93;2.72;;;;;;;;;;5146624;27;20388;-66
2022/01/06 05:10:32;;;;;;;4.90;2.03;;;;;;;;;;5147036;27;20326;-66
2022/01/06 05:13:00;;;;;;;3.42;2.10;;;;;;;;;;5146912;27;20195;-66
2022/01/06 05:15:26;;;;;;;2.90;2.35;;;;;;;;;;5146485;27;20490;-66
2022/01/06 05:17:53;;;;;;;5.40;2.15;;;;;;;;;;5146815;27;20490;-66
2022/01/06 05:20:25;;;;;;;6.18;2.22;;;;;;;;;;5146072;27;20219;-66
2022/01/06 05:22:54;;;;;;;3.65;2.28;;;;;;;;;;5146665;27;20382;-66
2022/01/06 05:25:25;;;;;;;2.35;1.77;;;;;;;;;;5146273;27;20194;-66
2022/01/06 05:27:51;;;;;;;3.33;2.33;;;;;;;;;;5146941;27;20194;-66
2022/01/06 05:30:19;;;;;;;5.57;2.40;;;;;;;;;;5146404;27;20479;-66
2022/01/06 05:32:45;;;;;;;3.65;2.10;;;;;;;;;;5146319;27;20494;-66
2022/01/06 05:35:12;;;;;;;4.40;2.28;;;;;;;;;;5145514;27;20383;-66
2022/01/06 05:37:38;;;;;;;1.90;1.80;;;;;;;;;;5146600;27;20194;-66
2022/01/06 05:40:05;;;;;;;3.38;2.70;;;;;;;;;;5145966;27;20195;-66
2022/01/06 05:42:32;;;;;;;5.47;2.17;;;;;;;;;;5146061;27;20195;-66
2022/01/06 05:44:58;;;;;;;5.00;2.97;;;;;;;;;;5145908;27;20214;-66
2022/01/06 05:47:26;;;;;;;3.72;2.80;;;;;;;;;;5145844;27;20194;-66
2022/01/06 05:49:52;;;;;;;4.03;2.20;;;;;;;;;;5145589;27;20194;-66
2022/01/06 05:52:19;;;;;;;2.58;2.17;;;;;;;;;;5145772;27;20191;-66
2022/01/06 05:54:45;;;;;;;2.05;1.95;;;;;;;;;;5145973;27;20501;-66
2022/01/06 05:57:13;;;;;;;2.42;2.22;;;;;;;;;;5145773;27;20198;-66
2022/01/06 05:59:39;;;;;;;2.40;2.20;;;;;;;;;;5146058;27;20312;-66
2022/01/06 06:02:06;;;;;;;3.60;2.00;;;;;;;;;;5145556;27;20421;-66
2022/01/06 06:04:33;;;;;;;3.13;2.08;;;;;;;;;;5145633;27;20514;-66
2022/01/06 06:07:00;;;;;;;6.03;2.35;;;;;;;;;;5145872;27;20385;-66
2022/01/06 06:09:26;;;;;;;2.85;2.55;;;;;;;;;;5145822;27;20194;-66
2022/01/06 06:11:53;;;;;;;3.55;2.30;;;;;;;;;;5145862;27;20191;-66
2022/01/06 06:14:19;;;;;;;2.50;2.10;;;;;;;;;;5145332;27;20197;-66
2022/01/06 06:16:46;;;;;;;3.30;2.15;;;;;;;;;;5145292;27;20384;-66
2022/01/06 06:19:12;;;;;;;3.85;2.17;;;;;;;;;;5145293;27;20210;-66
2022/01/06 06:21:40;;;;;;;2.55;2.10;;;;;;;;;;5145117;27;20218;-66
2022/01/06 06:24:06;;;;;;;2.88;2.03;;;;;;;;;;5145762;27;20195;-66
2022/01/06 06:26:33;;;;;;;3.78;2.20;;;;;;;;;;5144897;27;20194;-66
2022/01/06 06:29:00;;;;;;;3.85;2.13;;;;;;;;;;5145202;27;20201;-66
2022/01/06 06:31:26;;;;;;;2.90;2.25;;;;;;;;;;5145023;27;20191;-66
2022/01/06 06:33:52;;;;;;;3.10;2.42;;;;;;;;;;5145024;27;20202;-66
2022/01/06 06:36:19;;;;;;;4.50;2.28;;;;;;;;;;5144879;27;20371;-66
2022/01/06 06:38:47;;;;;;;5.80;2.15;;;;;;;;;;5145077;27;20195;-66
2022/01/06 06:41:13;;;;;;;4.32;2.28;;;;;;;;;;5145158;27;20211;-66
2022/01/06 06:43:39;;;;;;;3.15;2.25;;;;;;;;;;5145152;27;20513;-66
2022/01/06 06:46:06;;;;;;;3.42;2.25;;;;;;;;;;5144458;27;20222;-66
2022/01/06 06:48:32;;;;;;;3.63;2.17;;;;;;;;;;5144881;27;20222;-66
2022/01/06 06:51:00;;;;;;;2.85;2.00;;;;;;;;;;5145057;27;20213;-66
2022/01/06 06:53:26;;;;;;;2.33;2.20;;;;;;;;;;5144742;27;20262;-66
2022/01/06 06:55:54;;;;;;;2.45;2.25;;;;;;;;;;5144345;27;20201;-67
2022/01/06 06:58:20;;;;;;;5.70;2.20;;;;;;;;;;5144858;27;20206;-67
2022/01/06 07:00:47;;;;;;;2.28;2.08;;;;;;;;;;5144641;27;20218;-67
2022/01/06 07:03:13;;;;;;;4.93;2.40;;;;;;;;;;5144513;27;20202;-67
2022/01/06 07:05:40;;;;;;;4.78;2.17;;;;;;;;;;5144461;27;20194;-67
2022/01/06 07:08:06;;;;;;;2.67;2.42;;;;;;;;;;5144543;27;20470;-67
2022/01/06 07:10:32;;;;;;;3.15;2.35;;;;;;;;;;5144573;27;20195;-67
2022/01/06 07:13:00;;;;;;;3.97;2.42;;;;;;;;;;5144228;27;20195;-67
2022/01/06 07:15:27;;;;;;;5.22;2.40;;;;;;;;;;5144303;27;20202;-67
2022/01/06 07:17:54;;;;;;;2.70;2.00;;;;;;;;;;5144367;27;20373;-67
2022/01/06 07:20:20;;;;;;;2.60;2.40;;;;;;;;;;5144183;27;20202;-67
2022/01/06 07:22:47;;;;;;;3.53;2.30;;;;;;;;;;5143922;27;20225;-67
2022/01/06 07:25:13;;;;;;;2.88;2.40;;;;;;;;;;5144168;27;20375;-67
2022/01/06 07:27:40;;;;;;;2.33;2.17;;;;;;;;;;5144152;27;20194;-67
2022/01/06 07:30:08;;;;;;;2.75;2.28;;;;;;;;;;5143762;27;20502;-67
2022/01/06 07:32:41;;;;;;;2.25;2.15;;;;;;;;;;5143856;27;20198;-67
2022/01/06 07:35:08;;;;;;;3.80;2.53;;;;;;;;;;5143644;27;20201;-67
2022/01/06 07:37:35;;;;;;;2.35;2.13;;;;;;;;;;5143949;27;20409;-67
2022/01/06 07:40:01;;;;;;;2.47;2.25;;;;;;;;;;5144085;27;20194;-67
2022/01/06 07:42:27;;;;;;;3.67;3.10;;;;;;;;;;5143619;27;20222;-67
2022/01/06 07:44:55;;;;;;;4.50;3.65;;;;;;;;;;5143651;27;20222;-67
2022/01/06 07:47:23;;;;;;;3.60;3.30;;;;;;;;;;5143865;27;20261;-67
2022/01/06 07:49:49;;;;;;;3.38;2.97;;;;;;;;;;5143403;27;20202;-67
2022/01/06 07:52:15;;;;;;;3.33;3.05;;;;;;;;;;5143578;27;20186;-67
2022/01/06 07:54:42;;;;;;;4.07;3.00;;;;;;;;;;5143302;27;20525;-67
2022/01/06 07:57:08;;;;;;;7.20;2.92;;;;;;;;;;5143490;27;20195;-67
2022/01/06 07:59:35;;;;;;;6.72;3.53;;;;;;;;;;5143844;27;20194;-67
2022/01/06 08:02:01;;;;;;;6.30;4.28;;;;;;;;;;5143620;27;20215;-67
2022/01/06 08:04:29;;;;;;;4.47;3.40;;;;;;;;;;5143369;27;20393;-67
2022/01/06 08:06:55;;;;;;;3.88;3.30;;;;;;;;;;5143647;27;20202;-67
2022/01/06 08:09:22;;;;;;;3.47;3.17;;;;;;;;;;5143577;27;20201;-67
2022/01/06 08:11:48;;;;;;;3.60;3.30;;;;;;;;;;5143241;27;20210;-67
2022/01/06 08:14:14;;;;;;;3.75;3.35;;;;;;;;;;5143673;27;20514;-67
2022/01/06 08:16:41;;;;;;;3.83;3.42;;;;;;;;;;5143007;27;20201;-67
2022/01/06 08:19:07;;;;;;;5.18;3.33;;;;;;;;;;5143308;27;20405;-67
2022/01/06 08:21:35;;;;;;;3.03;2.83;;;;;;;;;;5143237;28;20229;-67
2022/01/06 08:24:01;;;;;;;3.55;3.30;;;;;;;;;;5143350;28;20201;-67
2022/01/06 08:26:28;;;;;;;3.08;2.85;;;;;;;;;;5143000;28;20194;-56
2022/01/06 08:28:54;;;;;;;2.95;2.47;;;;;;;;;;5143268;28;20449;-56
2022/01/06 08:31:20;;;;;;;2.35;2.13;;;;;;;;;;5143198;28;20359;-56
2022/01/06 08:33:47;;;;;;;5.78;2.42;;;;;;;;;;5143042;28;20202;-57
2022/01/06 08:36:13;;;;;;;2.38;2.08;;;;;;;;;;5142763;28;20221;-56
2022/01/06 08:38:41;;;;;;;2.13;2.03;;;;;;;;;;5142952;28;20195;-54
2022/01/06 08:41:08;;;;;;;2.30;2.08;;;;;;;;;;5143902;27;20194;-57
2022/01/06 08:43:35;;;;;;;3.22;2.40;;;;;;;;;;5147380;27;20225;-57
2022/01/06 08:46:01;;;;;;;2.30;2.20;;;;;;;;;;5146814;27;20222;-56
2022/01/06 08:48:29;;;;;;;2.20;2.10;;;;;;;;;;5147145;27;20183;-56
2022/01/06 08:50:55;;;;;;;2.72;2.50;;;;;;;;;;5146952;27;20195;-55
2022/01/06 08:53:22;;;;;;;3.40;2.50;;;;;;;;;;5147295;27;20189;-56
2022/01/06 08:55:50;;;;;;;2.28;2.13;;;;;;;;;;5146655;27;20499;-55
2022/01/06 08:58:17;;;;;;;2.38;2.30;;;;;;;;;;5127841;27;20218;-56
2022/01/06 09:00:43;;;;;;;3.15;2.38;;;;;;;;;;5126399;28;20195;-57
2022/01/06 09:03:10;;;;;;;4.80;2.92;;;;;;;;;;5126097;28;20539;-55
2022/01/06 09:05:37;;;;;;;2.25;2.05;;;;;;;;;;5125902;28;20199;-56
2022/01/06 09:08:03;;;;;;;3.58;3.28;;;;;;;;;;5125855;28;20195;-56
2022/01/06 09:10:30;;;;;;;3.80;2.70;;;;;;;;;;5114756;28;20192;-57
2022/01/06 09:12:58;;;;;;;21.55;12.15;;;;;;;;;;5126051;28;20221;-57
2022/01/06 09:15:25;;;;;;;17.77;9.73;;;;;;;;;;5125695;28;20202;-57
2022/01/06 09:17:51;;;;;;;8.68;5.43;;;;;;;;;;5126220;28;20232;-57
2022/01/06 09:20:17;;;;;;;8.73;4.35;;;;;;;;;;5125714;28;20211;-57
2022/01/06 09:22:45;;;;;;;6.57;3.80;;;;;;;;;;5125990;28;20519;-54
2022/01/06 09:25:12;;;;;;;6.88;3.28;;;;;;;;;;5125485;28;20202;-55
2022/01/06 09:27:39;;;;;;;4.38;3.20;;;;;;;;;;5125850;28;20422;-55
2022/01/06 09:30:07;;;;;;;7.22;3.20;;;;;;;;;;5125444;28;20210;-56
2022/01/06 09:32:34;;;;;;;5.40;4.18;;;;;;;;;;5125930;28;20198;-57
2022/01/06 09:35:00;;;;;;;7.50;3.42;;;;;;;;;;5125367;28;20203;-56
2022/01/06 09:37:27;;;;;;;9.93;3.10;;;;;;;;;;5125810;28;20195;-55
2022/01/06 09:39:54;;;;;;;10.25;3.55;;;;;;;;;;5125110;28;20202;-57
2022/01/06 09:42:21;;;;;;;5.80;2.28;;;;;;;;;;5125710;28;20218;-55
2022/01/06 09:44:48;;;;;;;8.73;2.70;;;;;;;;;;5125010;28;20219;-56
2022/01/06 09:47:16;;;;;;;6.88;2.70;;;;;;;;;;5125723;28;20195;-57
2022/01/06 09:49:44;;;;;;;8.23;3.17;;;;;;;;;;5125524;28;20195;-56
2022/01/06 09:52:11;;;;;;;6.38;2.28;;;;;;;;;;5124968;28;20553;-56
2022/01/06 09:54:38;;;;;;;14.68;5.15;;;;;;;;;;5125099;28;20199;-55
2022/01/06 09:57:05;;;;;;;9.38;2.58;;;;;;;;;;5125425;28;20499;-56
2022/01/06 09:59:33;;;;;;;10.68;2.95;;;;;;;;;;5124969;28;20331;-56
2022/01/06 10:02:00;;;;;;;6.10;2.33;;;;;;;;;;5124864;28;20215;-56
2022/01/06 10:04:29;;;;;;;7.43;2.85;;;;;;;;;;5124805;28;20202;-56
2022/01/06 10:06:59;;;;;;;7.90;2.65;;;;;;;;;;5125182;28;20487;-57
2022/01/06 10:09:26;;;;;;;8.25;2.65;;;;;;;;;;5124977;28;20229;-57
2022/01/06 10:11:54;;;;;;;9.57;2.38;;;;;;;;;;5124909;28;20198;-57
2022/01/06 10:14:30;;;;;;;7.15;2.45;;;;;;;;;;5124727;28;20633;-56
2022/01/06 10:16:57;;;;;;;6.25;2.53;;;;;;;;;;5124943;28;20194;-57
2022/01/06 10:19:24;;;;;;;7.78;3.08;;;;;;;;;;5124610;28;20203;-56
2022/01/06 10:21:57;;;;;;;6.78;2.40;;;;;;;;;;5124450;28;20222;-55
2022/01/06 10:24:24;;;;;;;10.95;3.42;;;;;;;;;;5124515;28;20199;-56
2022/01/06 10:26:52;;;;;;;10.27;3.25;;;;;;;;;;5124464;28;20499;-57
2022/01/06 10:29:19;;;;;;;8.45;2.63;;;;;;;;;;5124592;28;20202;-55
2022/01/06 10:31:45;;;;;;;5.90;2.70;;;;;;;;;;5124648;28;20503;-56
2022/01/06 10:34:11;;;;;;;5.97;2.42;;;;;;;;;;5124771;28;20496;-56
2022/01/06 10:36:39;;;;;;;7.82;3.00;;;;;;;;;;5124153;28;20252;-55
2022/01/06 10:39:08;;;;;;;7.40;3.40;;;;;;;;;;5124250;28;20195;-55
2022/01/06 10:41:35;;;;;;;7.32;2.85;;;;;;;;;;5123989;28;20276;-56
2022/01/06 10:44:02;;;;;;;11.68;2.95;;;;;;;;;;5124048;28;20195;-56
2022/01/06 10:46:33;;;;;;;5.55;2.60;;;;;;;;;;5124065;28;20534;-55
2022/01/06 10:49:00;;;;;;;7.50;2.80;;;;;;;;;;5124139;28;20195;-57
2022/01/06 10:51:36;;;;;;;6.40;2.47;;;;;;;;;;5123873;28;20205;-57
2022/01/06 10:54:03;;;;;;;11.27;3.45;;;;;;;;;;5124216;28;20471;-57
2022/01/06 10:56:31;;;;;;;6.97;3.00;;;;;;;;;;5124004;28;20499;-57
2022/01/06 10:58:58;;;;;;;5.63;2.85;;;;;;;;;;5124064;28;20387;-55
2022/01/06 11:01:25;;;;;;;7.35;2.78;;;;;;;;;;5124123;28;20195;-57
2022/01/06 11:03:51;;;;;;;7.07;3.53;;;;;;;;;;5122902;28;20218;-56
2022/01/06 11:06:18;;;;;;;8.55;3.72;;;;;;;;;;5123770;28;20195;-55
2022/01/06 11:08:44;;;;;;;10.48;3.60;;;;;;;;;;5123701;28;20437;-54
2022/01/06 11:11:29;;;;;;;10.23;4.03;;;;;;;;;;5123968;28;20244;-56
2022/01/06 11:13:57;;;;;;;11.75;3.58;;;;;;;;;;5123524;28;20183;-56
2022/01/06 11:16:23;;;;;;;10.40;2.75;;;;;;;;;;5123178;28;20195;-56
2022/01/06 11:18:50;;;;;;;6.13;2.97;;;;;;;;;;5123446;28;20404;-54
2022/01/06 11:21:18;;;;;;;20.48;5.63;;;;;;;;;;5123618;28;20382;-55
2022/01/06 11:23:44;;;;;;;25.90;8.75;;;;;;;;;;5123265;28;20226;-59
2022/01/06 11:26:12;;;;;;;17.33;4.05;;;;;;;;;;5123191;28;20195;-59
2022/01/06 11:28:39;;;;;;;12.75;4.00;;;;;;;;;;5123208;28;20270;-59
2022/01/06 11:31:17;;;;;;;11.00;2.80;;;;;;;;;;5123527;28;20195;-59
2022/01/06 11:33:44;;;;;;;8.93;2.60;;;;;;;;;;5123337;28;20198;-59
2022/01/06 11:36:19;;;;;;;9.27;2.90;;;;;;;;;;5122975;28;20195;-60
2022/01/06 11:38:47;;;;;;;8.13;2.28;;;;;;;;;;5123126;28;20193;-60
2022/01/06 11:41:13;;;;;;;11.18;3.30;;;;;;;;;;5123215;28;20203;-60
2022/01/06 11:43:40;;;;;;;10.52;2.60;;;;;;;;;;5123442;28;20245;-60
2022/01/06 11:46:07;;;;;;;5.43;2.30;;;;;;;;;;5122564;28;20215;-61
2022/01/06 11:48:44;;;;;;;6.05;2.47;;;;;;;;;;5123417;28;20357;-60
2022/01/06 11:51:21;;;;;;;11.07;3.20;;;;;;;;;;5123201;28;20194;-60
2022/01/06 11:53:48;;;;;;;10.32;2.90;;;;;;;;;;5122831;28;20205;-60
2022/01/06 11:56:15;;;;;;;5.57;2.05;;;;;;;;;;5123043;28;20195;-60
2022/01/06 11:58:41;;;;;;;6.15;2.03;;;;;;;;;;5123186;28;20386;-61
2022/01/06 12:01:13;;;;;;;6.72;2.58;;;;;;;;;;5123040;28;20498;-61
2022/01/06 12:03:41;;;;;;;8.77;2.97;;;;;;;;;;5123002;28;20226;-57
2022/01/06 12:06:09;;;;;;;7.78;2.40;;;;;;;;;;5122670;28;20204;-58
2022/01/06 12:08:39;;;;;;;6.88;2.10;;;;;;;;;;5123093;28;20195;-59
2022/01/06 12:11:05;;;;;;;6.82;2.15;;;;;;;;;;5122594;28;20366;-58
2022/01/06 12:13:42;;;;;;;6.85;2.40;;;;;;;;;;5122763;28;20259;-59
2022/01/06 12:16:09;;;;;;;9.38;2.75;;;;;;;;;;5122800;28;20197;-59
2022/01/06 12:18:36;;;;;;;8.32;2.45;;;;;;;;;;5122519;28;20194;-60
2022/01/06 12:21:04;;;;;;;6.68;2.15;;;;;;;;;;5122437;28;20519;-58
2022/01/06 12:23:30;;;;;;;9.90;2.67;;;;;;;;;;5122811;28;20250;-59
2022/01/06 12:25:57;;;;;;;7.50;2.03;;;;;;;;;;5122478;28;20195;-60
2022/01/06 12:28:24;;;;;;;11.38;2.90;;;;;;;;;;5122968;28;20487;-58
2022/01/06 12:30:50;;;;;;;7.18;2.22;;;;;;;;;;5123102;28;20490;-59
2022/01/06 12:33:20;;;;;;;7.25;1.88;;;;;;;;;;5117804;28;20205;-59
2022/01/06 12:35:49;;;;;;;6.43;1.70;;;;;;;;;;5110057;28;20207;-59
2022/01/06 12:38:22;;;;;;;8.65;2.00;;;;;;;;;;5102084;28;20203;-59
2022/01/06 12:40:49;;;;;;;5.43;1.42;;;;;;;;;;5102514;28;20495;-60
2022/01/06 12:43:16;;;;;;;6.40;2.15;;;;;;;;;;5102273;28;20216;-59
2022/01/06 12:45:44;;;;;;;6.72;2.13;;;;;;;;;;5102149;28;20220;-59
2022/01/06 12:48:10;;;;;;;6.53;2.15;;;;;;;;;;5102377;28;20202;-59
2022/01/06 12:50:41;;;;;;;8.40;2.63;;;;;;;;;;5102283;28;20391;-59
2022/01/06 12:53:07;;;;;;;8.45;2.63;;;;;;;;;;5102133;28;20198;-59
2022/01/06 12:55:41;;;;;;;8.38;2.47;;;;;;;;;;5102014;28;20497;-60
2022/01/06 12:58:07;;;;;;;7.35;2.90;;;;;;;;;;5102352;28;20382;-59
2022/01/06 13:00:34;;;;;;;12.18;2.88;;;;;;;;;;5102348;28;20184;-60
2022/01/06 13:03:04;;;;;;;8.18;1.98;;;;;;;;;;5102326;28;20226;-59
2022/01/06 13:05:31;;;;;;;7.30;2.20;;;;;;;;;;5101982;28;20552;-59
2022/01/06 13:08:01;;;;;;;8.55;2.22;;;;;;;;;;5102236;28;20241;-59
2022/01/06 13:10:28;;;;;;;9.98;2.25;;;;;;;;;;5102072;28;20222;-59
2022/01/06 13:13:03;;;;;;;16.05;4.03;;;;;;;;;;5102123;28;20192;-59
2022/01/06 13:15:33;;;;;;;7.93;2.22;;;;;;;;;;5101572;28;20202;-60
2022/01/06 13:18:00;;;;;;;13.77;2.60;;;;;;;;;;5101939;28;20218;-59
2022/01/06 13:20:26;;;;;;;9.18;2.50;;;;;;;;;;5101675;28;20204;-61
2022/01/06 13:23:22;;;;;;;7.45;2.10;;;;;;;;;;5101858;28;20527;-60
2022/01/06 13:25:48;;;;;;;12.77;2.05;;;;;;;;;;5101527;28;20192;-59
2022/01/06 13:28:16;;;;;;;10.98;2.03;;;;;;;;;;5104942;28;20309;-59
2022/01/06 13:30:45;;;;;;;10.38;1.90;;;;;;;;;;5105740;28;20203;-61
2022/01/06 13:33:13;;;;;;;7.53;2.05;;;;;;;;;;5105513;28;20206;-60
2022/01/06 13:35:46;;;;;;;4.78;2.08;;;;;;;;;;5104961;28;20202;-61
2022/01/06 13:38:14;;;;;;;7.43;2.22;;;;;;;;;;5105178;28;20196;-59
2022/01/06 13:40:45;;;;;;;7.18;2.25;;;;;;;;;;5105384;28;20383;-57
2022/01/06 13:43:13;;;;;;;5.97;2.35;;;;;;;;;;5105003;28;20226;-59
2022/01/06 13:45:45;;;;;;;8.32;2.50;;;;;;;;;;5105002;28;20255;-59
2022/01/06 13:48:31;;;;;;;7.22;2.80;;;;;;;;;;5105364;28;20188;-61
2022/01/06 13:51:05;;;;;;;7.82;2.28;;;;;;;;;;5104756;28;20202;-58
2022/01/06 13:53:37;;;;;;;10.50;2.38;;;;;;;;;;5104723;28;20194;-56
2022/01/06 13:56:05;;;;;;;9.73;2.40;;;;;;;;;;5104845;28;20425;-55
2022/01/06 13:58:32;;;;;;;10.13;2.50;;;;;;;;;;5104889;28;20195;-57
2022/01/06 14:01:02;;;;;;;9.40;3.13;;;;;;;;;;5104868;28;20195;-57
2022/01/06 14:03:31;;;;;;;8.10;2.38;;;;;;;;;;5104936;28;20453;-56
2022/01/06 14:05:58;;;;;;;5.93;2.10;;;;;;;;;;5104711;28;20219;-58
2022/01/06 14:08:24;;;;;;;12.30;2.75;;;;;;;;;;5104746;28;20486;-60
2022/01/06 14:10:50;;;;;;;5.38;2.35;;;;;;;;;;5104855;28;20196;-56
2022/01/06 14:13:17;;;;;;;11.60;2.25;;;;;;;;;;5104421;28;20192;-57
2022/01/06 14:15:45;;;;;;;5.53;2.00;;;;;;;;;;5104480;28;20196;-57
2022/01/06 14:18:13;;;;;;;7.45;1.92;;;;;;;;;;5104617;28;20234;-59
2022/01/06 14:20:40;;;;;;;4.97;2.15;;;;;;;;;;5104179;28;20210;-59
2022/01/06 14:23:06;;;;;;;6.57;1.77;;;;;;;;;;5104441;28;20403;-59
2022/01/06 14:25:33;;;;;;;7.82;2.25;;;;;;;;;;5104083;28;20218;-58
2022/01/06 14:27:59;;;;;;;6.28;1.38;;;;;;;;;;5104261;28;20504;-59
2022/01/06 14:30:25;;;;;;;6.72;1.83;;;;;;;;;;5104186;28;20196;-60
2022/01/06 14:32:52;;;;;;;9.13;2.03;;;;;;;;;;5104116;28;20227;-59
2022/01/06 14:35:20;;;;;;;8.07;2.15;;;;;;;;;;5104150;28;20326;-60
2022/01/06 14:37:46;;;;;;;10.70;2.38;;;;;;;;;;5103952;28;20195;-58
2022/01/06 14:40:13;;;;;;;7.43;2.33;;;;;;;;;;5103728;28;20203;-58
2022/01/06 14:42:40;;;;;;;8.95;1.88;;;;;;;;;;5103356;28;20196;-56
2022/01/06 14:45:06;;;;;;;7.97;2.00;;;;;;;;;;5102584;28;20287;-58
2022/01/06 14:47:33;;;;;;;4.88;2.03;;;;;;;;;;5102067;28;20478;-58